createdAt,value
2023-02-16T00:01:28.874Z,37.10
2023-02-16T00:03:58.156Z,26.65
2023-02-16T00:06:27.682Z,29.60
2023-02-16T00:08:58.546Z,28.70
2023-02-16T00:11:51.382Z,36.38
2023-02-16T00:14:26.180Z,35.03
2023-02-16T00:16:57.843Z,29.85
2023-02-16T00:19:28.197Z,33.60
2023-02-16T00:21:59.113Z,31.70
2023-02-16T00:24:29.738Z,31.08
2023-02-16T00:26:59.310Z,30.65
2023-02-16T00:29:30.838Z,27.42
2023-02-16T00:32:03.182Z,29.63
2023-02-16T00:34:34.569Z,27.30
2023-02-16T00:37:05.205Z,26.48
2023-02-16T00:39:34.852Z,33.60
2023-02-16T00:42:06.607Z,28.55
2023-02-16T00:44:40.699Z,26.40
2023-02-16T00:47:20.364Z,30.85
2023-02-16T00:49:49.404Z,24.88
2023-02-16T00:52:34.349Z,32.25
2023-02-16T00:55:04.794Z,31.95
2023-02-16T00:57:37.385Z,30.55
2023-02-16T01:00:09.779Z,31.58
2023-02-16T01:02:40.065Z,29.52
2023-02-16T01:05:09.061Z,25.92
2023-02-16T01:07:54.854Z,38.03
2023-02-16T01:10:43.298Z,23.73
2023-02-16T01:13:13.099Z,33.70
2023-02-16T01:15:42.256Z,37.75
2023-02-16T01:23:57.477Z,30.15
2023-02-16T01:26:49.796Z,32.72
2023-02-16T01:29:55.398Z,31.35
2023-02-16T01:32:29.110Z,27.67
2023-02-16T01:35:04.156Z,28.60
2023-02-16T01:37:35.961Z,27.33
2023-02-16T01:40:05.666Z,35.75
2023-02-16T01:42:38.830Z,39.25
2023-02-16T01:45:15.500Z,29.75
2023-02-16T01:47:53.055Z,40.20
2023-02-16T01:50:24.493Z,28.23
2023-02-16T01:52:58.935Z,30.75
2023-02-16T01:55:31.150Z,30.95
2023-02-16T01:58:05.439Z,34.88
2023-02-16T02:01:12.161Z,33.33
2023-02-16T02:04:00.191Z,38.33
2023-02-16T02:06:36.325Z,32.88
2023-02-16T02:09:09.995Z,32.63
2023-02-16T02:11:43.343Z,31.40
2023-02-16T02:14:17.021Z,32.50
2023-02-16T02:16:56.879Z,33.78
2023-02-16T02:19:25.606Z,27.10
2023-02-16T02:22:33.494Z,37.83
2023-02-16T02:25:29.647Z,29.90
2023-02-16T02:28:07.835Z,35.00
2023-02-16T02:30:48.755Z,34.88
2023-02-16T02:33:35.860Z,34.75
2023-02-16T02:36:20.018Z,29.15
2023-02-16T02:38:59.364Z,29.70
2023-02-16T02:41:55.381Z,33.17
2023-02-16T02:44:28.268Z,30.75
2023-02-16T02:46:57.626Z,26.87
2023-02-16T02:49:26.515Z,29.02
2023-02-16T02:51:57.148Z,26.40
2023-02-16T02:54:46.777Z,26.25
2023-02-16T02:57:37.070Z,30.92
2023-02-16T03:00:29.801Z,27.48
2023-02-16T03:03:04.000Z,30.70
2023-02-16T03:05:33.697Z,33.97
2023-02-16T03:08:14.225Z,28.85
2023-02-16T03:11:03.441Z,32.85
2023-02-16T03:13:36.144Z,29.17
2023-02-16T03:16:10.269Z,31.38
2023-02-16T03:18:58.277Z,29.20
2023-02-16T03:21:45.907Z,26.63
2023-02-16T03:24:35.805Z,30.05
2023-02-16T03:27:21.891Z,35.92
2023-02-16T03:29:53.226Z,28.15
2023-02-16T03:32:23.390Z,31.38
2023-02-16T03:34:52.019Z,32.47
2023-02-16T03:37:20.410Z,37.53
2023-02-16T03:40:06.025Z,35.33
2023-02-16T03:42:35.169Z,33.88
2023-02-16T03:45:03.766Z,34.15
2023-02-16T03:47:34.492Z,25.38
2023-02-16T03:50:03.194Z,32.40
2023-02-16T03:52:31.361Z,34.83
2023-02-16T03:55:00.684Z,30.67
2023-02-16T03:57:31.293Z,36.53
2023-02-16T04:00:00.440Z,33.25
2023-02-16T04:02:29.175Z,35.42
2023-02-16T04:04:59.289Z,33.50
2023-02-16T04:07:28.073Z,35.67
2023-02-16T04:09:57.315Z,25.77
2023-02-16T04:12:38.228Z,32.33
2023-02-16T04:15:08.377Z,30.90
2023-02-16T04:17:36.883Z,27.83
2023-02-16T04:20:08.922Z,35.25
2023-02-16T04:22:37.317Z,31.20
2023-02-16T04:25:06.108Z,25.25
2023-02-16T04:27:34.953Z,26.38
2023-02-16T04:30:03.598Z,28.40
2023-02-16T04:32:32.744Z,28.40
2023-02-16T04:35:00.957Z,28.38
2023-02-16T04:37:31.896Z,31.80
2023-02-16T04:40:01.153Z,29.00
2023-02-16T04:42:29.733Z,23.40
2023-02-16T04:44:58.350Z,25.63
2023-02-16T04:47:31.832Z,28.17
2023-02-16T04:50:00.346Z,32.17
2023-02-16T04:52:30.948Z,34.75
2023-02-16T04:55:00.881Z,25.17
2023-02-16T04:57:31.454Z,29.17
2023-02-16T05:00:02.535Z,28.20
2023-02-16T05:02:33.736Z,26.00
2023-02-16T05:05:02.172Z,32.53
2023-02-16T05:07:32.518Z,25.58
2023-02-16T05:10:01.442Z,25.63
2023-02-16T05:12:47.672Z,26.67
2023-02-16T05:15:16.611Z,31.20
2023-02-16T05:17:45.480Z,27.52
2023-02-16T05:20:15.201Z,25.52
2023-02-16T05:22:46.456Z,21.67
2023-02-16T05:25:15.952Z,21.63
2023-02-16T05:27:45.160Z,25.10
2023-02-16T05:30:16.453Z,26.77
2023-02-16T05:32:45.487Z,21.08
2023-02-16T05:35:14.376Z,25.05
2023-02-16T05:37:43.176Z,25.63
2023-02-16T05:40:14.966Z,30.40
2023-02-16T05:42:43.625Z,19.98
2023-02-16T05:45:12.450Z,28.42
2023-02-16T05:47:41.013Z,27.13
2023-02-16T05:50:10.050Z,21.15
2023-02-16T05:52:40.263Z,33.20
2023-02-16T05:55:09.791Z,25.20
2023-02-16T05:57:39.606Z,22.88
2023-02-16T06:00:09.626Z,29.48
2023-02-16T06:02:38.345Z,26.30
2023-02-16T06:05:07.193Z,29.30
2023-02-16T06:07:36.296Z,26.75
2023-02-16T06:10:05.076Z,26.75
2023-02-16T06:12:34.870Z,31.35
2023-02-16T06:15:05.308Z,29.52
2023-02-16T06:17:34.121Z,27.58
2023-02-16T06:20:02.498Z,24.65
2023-02-16T06:22:30.685Z,27.58
2023-02-16T06:24:59.168Z,30.65
2023-02-16T06:27:28.800Z,26.42
2023-02-16T06:29:57.174Z,28.58
2023-02-16T06:32:27.611Z,25.45
2023-02-16T06:34:55.942Z,24.58
2023-02-16T06:37:25.915Z,24.20
2023-02-16T06:39:55.391Z,23.85
2023-02-16T06:42:23.972Z,22.23
2023-02-16T06:44:52.693Z,27.15
2023-02-16T06:47:21.053Z,22.90
2023-02-16T06:49:50.873Z,27.80
2023-02-16T06:52:19.655Z,32.10
2023-02-16T06:54:47.765Z,23.98
2023-02-16T06:57:17.337Z,22.73
2023-02-16T06:59:46.381Z,28.08
2023-02-16T07:02:14.608Z,26.55
2023-02-16T07:04:43.473Z,25.77
2023-02-16T07:07:13.471Z,22.25
2023-02-16T07:09:42.025Z,23.95
2023-02-16T07:12:10.308Z,23.58
2023-02-16T07:14:38.722Z,21.88
2023-02-16T07:17:07.015Z,25.00
2023-02-16T07:19:35.387Z,25.73
2023-02-16T07:22:05.766Z,26.85
2023-02-16T07:24:36.283Z,24.85
2023-02-16T07:27:06.072Z,29.80
2023-02-16T07:29:34.811Z,26.10
2023-02-16T07:32:04.464Z,22.33
2023-02-16T07:34:33.510Z,21.08
2023-02-16T07:37:02.434Z,24.02
2023-02-16T07:39:31.521Z,20.67
2023-02-16T07:42:01.228Z,22.55
2023-02-16T07:44:29.830Z,23.00
2023-02-16T07:46:57.892Z,21.63
2023-02-16T07:49:26.373Z,22.35
2023-02-16T07:51:54.754Z,19.52
2023-02-16T07:54:23.087Z,20.17
2023-02-16T07:56:51.266Z,20.83
2023-02-16T07:59:21.058Z,20.20
2023-02-16T08:01:49.304Z,25.73
2023-02-16T08:04:17.756Z,23.55
2023-02-16T08:06:47.180Z,19.52
2023-02-16T08:09:15.646Z,22.17
2023-02-16T08:11:44.330Z,24.92
2023-02-16T08:14:12.984Z,19.80
2023-02-16T08:16:42.889Z,20.98
2023-02-16T08:19:13.383Z,21.80
2023-02-16T08:21:42.011Z,21.65
2023-02-16T08:24:14.760Z,19.40
2023-02-16T08:26:44.933Z,21.90
2023-02-16T08:29:15.462Z,24.60
2023-02-16T08:31:47.464Z,20.60
2023-02-16T08:34:17.661Z,22.20
2023-02-16T08:36:48.441Z,21.13
2023-02-16T08:39:19.145Z,21.45
2023-02-16T08:41:48.868Z,25.85
2023-02-16T08:44:19.151Z,19.73
2023-02-16T08:46:51.261Z,21.25
2023-02-16T08:49:22.140Z,18.02
2023-02-16T08:51:53.471Z,15.80
2023-02-16T08:54:26.826Z,21.63
2023-02-16T08:56:56.269Z,20.75
2023-02-16T08:59:28.479Z,16.63
2023-02-16T09:01:59.590Z,20.60
2023-02-16T09:04:29.592Z,18.42
2023-02-16T09:07:00.025Z,18.90
2023-02-16T09:09:29.048Z,18.73
2023-02-16T09:11:58.521Z,18.25
2023-02-16T09:14:28.133Z,18.25
2023-02-16T09:16:58.453Z,22.77
2023-02-16T09:19:28.464Z,18.73
2023-02-16T09:21:57.079Z,16.15
2023-02-16T09:24:25.551Z,18.23
2023-02-16T09:26:54.152Z,19.40
2023-02-16T09:29:23.190Z,16.02
2023-02-16T09:31:52.329Z,18.08
2023-02-16T09:34:22.290Z,18.42
2023-02-16T09:36:53.192Z,16.00
2023-02-16T09:39:21.667Z,16.00
2023-02-16T09:42:19.678Z,15.55
2023-02-16T09:44:55.477Z,18.08
2023-02-16T09:47:31.512Z,19.20
2023-02-16T09:50:01.482Z,20.95
2023-02-16T09:52:37.617Z,19.17
2023-02-16T09:55:09.326Z,17.98
2023-02-16T09:57:48.243Z,18.85
2023-02-16T10:00:27.307Z,17.25
2023-02-16T10:03:03.219Z,23.05
2023-02-16T10:05:39.910Z,19.92
2023-02-16T10:08:13.450Z,20.30
2023-02-16T10:10:50.123Z,17.58
2023-02-16T10:13:26.432Z,19.75
2023-02-16T10:15:58.323Z,15.70
2023-02-16T10:18:31.870Z,18.23
2023-02-16T10:21:03.965Z,15.55
2023-02-16T10:23:48.276Z,22.67
2023-02-16T10:28:51.719Z,16.20
2023-02-16T10:31:28.491Z,19.33
2023-02-16T10:34:09.673Z,17.98
2023-02-16T10:37:04.207Z,14.32
2023-02-16T10:39:46.461Z,16.63
2023-02-16T10:42:22.878Z,15.85
2023-02-16T10:44:59.672Z,15.88
2023-02-16T10:47:34.431Z,16.10
2023-02-16T10:50:03.530Z,18.17
2023-02-16T10:52:37.289Z,17.77
2023-02-16T10:55:08.511Z,12.75
2023-02-16T10:57:37.386Z,18.77
2023-02-16T11:00:14.013Z,13.35
2023-02-16T11:02:45.703Z,18.77
2023-02-16T11:05:32.521Z,14.45
2023-02-16T11:08:02.907Z,16.70
2023-02-16T11:10:42.639Z,16.48
2023-02-16T11:13:28.848Z,16.40
2023-02-16T11:16:02.309Z,15.80
2023-02-16T11:18:36.581Z,14.07
2023-02-16T11:21:06.647Z,15.00
2023-02-16T11:23:37.581Z,18.08
2023-02-16T11:26:22.899Z,17.55
2023-02-16T11:28:54.258Z,23.92
2023-02-16T11:31:30.518Z,17.40
2023-02-16T11:34:03.759Z,20.83
2023-02-16T11:36:37.934Z,19.73
2023-02-16T11:39:11.226Z,16.60
2023-02-16T11:41:45.589Z,14.60
2023-02-16T11:44:31.036Z,14.68
2023-02-16T11:47:01.107Z,15.88
2023-02-16T11:49:33.259Z,20.42
2023-02-16T11:52:02.777Z,15.05
2023-02-16T11:54:31.467Z,16.25
2023-02-16T11:57:05.813Z,19.02
2023-02-16T11:59:37.801Z,17.00
2023-02-16T12:02:30.940Z,13.90
2023-02-16T12:05:15.489Z,14.38
2023-02-16T12:07:53.466Z,14.07
2023-02-16T12:10:27.299Z,15.75
2023-02-16T12:13:03.939Z,15.95
2023-02-16T12:15:43.106Z,14.27
2023-02-16T12:18:27.209Z,14.27
2023-02-16T12:21:05.214Z,15.18
2023-02-16T12:23:41.346Z,12.30
2023-02-16T12:26:34.223Z,14.82
2023-02-16T12:29:20.859Z,16.27
2023-02-16T12:32:07.785Z,14.98
2023-02-16T12:34:48.813Z,13.40
2023-02-16T12:37:27.268Z,12.05
2023-02-16T12:40:04.402Z,13.88
2023-02-16T12:42:50.259Z,14.20
2023-02-16T12:45:23.302Z,12.00
2023-02-16T12:47:56.871Z,13.70
2023-02-16T12:50:29.029Z,14.20
2023-02-16T12:53:02.568Z,13.00
2023-02-16T12:55:37.103Z,13.20
2023-02-16T12:58:16.913Z,12.73
2023-02-16T13:00:49.824Z,13.57
2023-02-16T13:03:28.262Z,12.57
2023-02-16T13:06:08.420Z,11.15
2023-02-16T13:08:45.131Z,11.10
2023-02-16T13:11:21.218Z,11.55
2023-02-16T13:13:51.615Z,11.55
2023-02-16T13:16:30.569Z,10.63
2023-02-16T13:19:00.067Z,11.45
2023-02-16T13:21:56.071Z,11.40
2023-02-16T13:24:37.673Z,13.57
2023-02-16T13:27:19.174Z,12.13
2023-02-16T13:30:11.567Z,13.30
2023-02-16T13:33:07.483Z,12.85
2023-02-16T13:35:54.218Z,10.48
2023-02-16T13:38:55.917Z,13.73
2023-02-16T13:41:46.763Z,9.65
2023-02-16T13:44:18.224Z,9.05
2023-02-16T13:46:50.545Z,10.32
2023-02-16T13:49:39.486Z,11.15
2023-02-16T13:52:10.291Z,11.60
2023-02-16T13:54:44.092Z,10.68
2023-02-16T13:57:14.407Z,9.82
2023-02-16T14:00:01.417Z,10.93
2023-02-16T14:03:12.087Z,10.25
2023-02-16T14:05:44.296Z,11.45
2023-02-16T14:08:21.311Z,8.82
2023-02-16T14:11:09.065Z,12.32
2023-02-16T14:13:55.599Z,8.10
2023-02-16T14:16:34.024Z,7.88
2023-02-16T14:19:06.192Z,8.32
2023-02-16T14:21:40.604Z,8.40
2023-02-16T14:24:15.068Z,8.35
2023-02-16T14:26:55.481Z,8.00
2023-02-16T14:29:29.020Z,9.23
2023-02-16T14:32:02.914Z,11.20
2023-02-16T14:34:37.888Z,9.32
2023-02-16T14:37:29.558Z,7.45
2023-02-16T14:40:16.603Z,9.70
2023-02-16T14:42:51.795Z,9.07
2023-02-16T14:45:44.847Z,8.68
2023-02-16T14:48:28.313Z,9.73
2023-02-16T14:51:19.890Z,7.30
2023-02-16T14:54:17.462Z,9.35
2023-02-16T14:56:50.939Z,8.30
2023-02-16T14:59:31.498Z,10.00
2023-02-16T15:02:00.720Z,11.43
2023-02-16T15:04:30.940Z,6.85
2023-02-16T15:07:03.366Z,11.70
2023-02-16T15:09:36.496Z,8.95
2023-02-16T15:12:23.969Z,6.97
2023-02-16T15:14:56.125Z,8.95
2023-02-16T15:17:34.409Z,9.23
2023-02-16T15:20:10.841Z,7.28
2023-02-16T15:22:44.664Z,9.20
2023-02-16T15:25:24.120Z,6.60
2023-02-16T15:27:59.277Z,7.80
2023-02-16T15:30:31.657Z,6.78
2023-02-16T15:33:03.093Z,7.15
2023-02-16T15:35:36.183Z,8.38
2023-02-16T15:38:20.509Z,10.20
2023-02-16T15:43:32.204Z,8.30
2023-02-16T15:46:03.220Z,8.38
2023-02-16T15:48:33.689Z,8.88
2023-02-16T15:51:09.136Z,7.18
2023-02-16T15:53:44.809Z,8.43
2023-02-16T15:56:38.263Z,6.88
2023-02-16T15:59:23.938Z,7.18
2023-02-16T16:01:59.301Z,8.45
2023-02-16T16:04:29.462Z,7.85
2023-02-16T16:07:00.500Z,8.52
2023-02-16T16:09:31.293Z,8.18
2023-02-16T16:12:07.321Z,8.98
2023-02-16T16:14:38.524Z,6.95
2023-02-16T16:17:10.237Z,7.97
2023-02-16T16:19:40.377Z,9.25
2023-02-16T16:22:33.169Z,6.95
2023-02-16T16:25:02.830Z,7.53
2023-02-16T16:27:36.223Z,8.65
2023-02-16T16:30:15.460Z,8.23
2023-02-16T16:32:44.604Z,10.98
2023-02-16T16:35:23.748Z,12.60
2023-02-16T16:37:54.306Z,9.13
2023-02-16T16:40:26.384Z,13.88
2023-02-16T16:43:17.714Z,11.63
2023-02-16T16:45:48.684Z,8.73
2023-02-16T16:48:21.493Z,10.27
2023-02-16T16:50:50.801Z,9.65
2023-02-16T16:53:43.366Z,9.32
2023-02-16T16:56:13.579Z,9.60
2023-02-16T16:58:44.020Z,9.15
2023-02-16T17:01:14.652Z,9.07
2023-02-16T17:03:43.689Z,13.50
2023-02-16T17:06:14.363Z,7.13
2023-02-16T17:08:43.257Z,10.60
2023-02-16T17:11:20.025Z,11.65
2023-02-16T17:13:49.993Z,16.23
2023-02-16T17:16:22.343Z,10.63
2023-02-16T17:18:50.865Z,12.27
2023-02-16T17:21:19.615Z,11.43
2023-02-16T17:23:53.203Z,10.95
2023-02-16T17:26:22.656Z,12.13
2023-02-16T17:28:53.345Z,8.15
2023-02-16T17:31:21.934Z,14.23
2023-02-16T17:33:50.205Z,10.25
2023-02-16T17:36:19.559Z,9.75
2023-02-16T17:38:49.536Z,10.65
2023-02-16T17:41:22.011Z,9.88
2023-02-16T17:43:51.852Z,8.20
2023-02-16T17:46:22.628Z,9.60
2023-02-16T17:48:53.563Z,9.43
2023-02-16T17:51:24.191Z,9.98
2023-02-16T17:53:52.861Z,9.23
2023-02-16T17:56:24.376Z,10.65
2023-02-16T17:58:55.219Z,15.50
2023-02-16T18:01:23.856Z,7.03
2023-02-16T18:03:53.674Z,7.90
2023-02-16T18:06:28.068Z,9.63
2023-02-16T18:08:57.272Z,10.63
2023-02-16T18:11:25.981Z,9.02
2023-02-16T18:13:55.928Z,10.93
2023-02-16T18:16:28.853Z,11.02
2023-02-16T18:19:00.472Z,9.77
2023-02-16T18:21:29.381Z,8.23
2023-02-16T18:23:57.650Z,9.43
2023-02-16T18:26:33.827Z,9.82
2023-02-16T18:29:03.776Z,9.55
2023-02-16T18:31:32.791Z,11.00
2023-02-16T18:34:01.023Z,9.23
2023-02-16T18:36:29.961Z,14.65
2023-02-16T18:38:58.278Z,8.82
2023-02-16T18:41:28.917Z,11.82
2023-02-16T18:43:59.301Z,12.15
2023-02-16T18:46:29.717Z,11.10
2023-02-16T18:48:58.668Z,14.13
2023-02-16T18:51:30.327Z,13.18
2023-02-16T18:54:02.395Z,11.65
2023-02-16T18:56:31.086Z,12.60
2023-02-16T18:58:59.430Z,11.52
2023-02-16T19:01:35.618Z,8.95
2023-02-16T19:04:05.247Z,9.88
2023-02-16T19:06:34.614Z,11.00
2023-02-16T19:09:05.649Z,9.98
2023-02-16T19:11:37.314Z,10.10
2023-02-16T19:14:06.043Z,11.25
2023-02-16T19:16:37.278Z,10.43
2023-02-16T19:19:05.657Z,14.93
2023-02-16T19:21:36.964Z,9.48
2023-02-16T19:24:06.433Z,9.32
2023-02-16T19:26:35.603Z,7.82
2023-02-16T19:29:05.408Z,10.57
2023-02-16T19:31:36.676Z,13.07
2023-02-16T19:34:05.733Z,12.00
2023-02-16T19:36:36.734Z,12.70
2023-02-16T19:39:09.706Z,10.35
2023-02-16T19:41:48.506Z,10.25
2023-02-16T19:44:17.640Z,11.25
2023-02-16T19:46:47.651Z,10.77
2023-02-16T19:49:17.485Z,11.95
2023-02-16T19:51:47.792Z,14.75
2023-02-16T19:54:16.574Z,11.35
2023-02-16T19:56:45.183Z,11.25
2023-02-16T19:59:15.605Z,13.10
2023-02-16T20:01:43.744Z,13.60
2023-02-16T20:04:13.658Z,14.90
2023-02-16T20:06:42.325Z,16.92
2023-02-16T20:09:13.487Z,13.40
2023-02-16T20:11:42.957Z,18.63
2023-02-16T20:14:13.394Z,13.95
2023-02-16T20:16:42.363Z,10.90
2023-02-16T20:19:11.017Z,13.55
2023-02-16T20:21:44.193Z,16.40
2023-02-16T20:24:13.203Z,13.93
2023-02-16T20:26:45.005Z,15.73
2023-02-16T20:29:16.377Z,10.75
2023-02-16T20:31:49.992Z,15.65
2023-02-16T20:34:19.501Z,12.90
2023-02-16T20:36:49.439Z,15.00
2023-02-16T20:39:17.997Z,17.35
2023-02-16T20:41:47.054Z,13.88
2023-02-16T20:44:15.885Z,16.05
2023-02-16T20:46:45.218Z,17.38
2023-02-16T20:49:13.687Z,14.60
2023-02-16T20:51:42.483Z,14.20
2023-02-16T20:54:13.491Z,12.88
2023-02-16T20:56:42.241Z,16.23
2023-02-16T20:59:14.356Z,15.45
2023-02-16T21:01:46.691Z,17.58
2023-02-16T21:04:17.798Z,13.07
2023-02-16T21:06:46.815Z,16.77
2023-02-16T21:09:17.229Z,15.63
2023-02-16T21:11:45.411Z,17.00
2023-02-16T21:14:14.216Z,21.17
2023-02-16T21:16:42.790Z,14.60
2023-02-16T21:19:22.118Z,16.42
2023-02-16T21:21:51.391Z,14.38
2023-02-16T21:24:21.456Z,18.08
2023-02-16T21:26:49.967Z,18.92
2023-02-16T21:29:18.531Z,19.15
2023-02-16T21:31:47.113Z,17.63
2023-02-16T21:34:15.352Z,17.33
2023-02-16T21:36:44.409Z,15.02
2023-02-16T21:39:14.610Z,17.75
2023-02-16T21:41:43.449Z,12.88
2023-02-16T21:44:14.051Z,18.48
2023-02-16T21:46:44.225Z,16.52
2023-02-16T21:49:14.234Z,15.00
2023-02-16T21:51:44.657Z,14.98
2023-02-16T21:54:15.647Z,21.17
2023-02-16T21:56:46.183Z,12.95
2023-02-16T21:59:16.312Z,14.48
2023-02-16T22:01:47.478Z,13.40
2023-02-16T22:04:17.766Z,16.00
2023-02-16T22:06:48.318Z,14.13
2023-02-16T22:09:18.872Z,12.98
2023-02-16T22:11:49.596Z,14.52
2023-02-16T22:14:18.336Z,15.20
2023-02-16T22:16:49.023Z,12.57
2023-02-16T22:19:19.905Z,13.48
2023-02-16T22:21:49.672Z,11.82
2023-02-16T22:24:19.518Z,14.90
2023-02-16T22:26:51.281Z,21.05
2023-02-16T22:29:20.663Z,13.80
2023-02-16T22:31:51.357Z,17.63
2023-02-16T22:34:21.975Z,15.23
2023-02-16T22:36:51.473Z,13.52
2023-02-16T22:39:21.084Z,20.33
2023-02-16T22:41:52.539Z,17.83
2023-02-16T22:44:20.911Z,13.05
2023-02-16T22:46:49.518Z,14.85
2023-02-16T22:49:18.685Z,13.85
2023-02-16T22:51:47.503Z,11.55
2023-02-16T22:54:16.882Z,12.63
2023-02-16T22:56:46.208Z,15.60
2023-02-16T22:59:16.028Z,14.20
2023-02-16T23:01:44.613Z,11.23
2023-02-16T23:04:15.675Z,15.15
2023-02-16T23:06:47.806Z,11.13
2023-02-16T23:09:18.699Z,13.73
2023-02-16T23:11:47.530Z,11.90
2023-02-16T23:14:17.886Z,13.05
2023-02-16T23:16:47.165Z,12.27
2023-02-16T23:19:18.332Z,13.40
2023-02-16T23:21:47.026Z,11.75
2023-02-16T23:24:17.981Z,13.15
2023-02-16T23:26:46.829Z,15.90
2023-02-16T23:29:16.844Z,13.25
2023-02-16T23:31:48.113Z,13.50
2023-02-16T23:34:17.104Z,15.25
2023-02-16T23:36:46.029Z,13.02
2023-02-16T23:39:16.968Z,14.63
2023-02-16T23:41:45.255Z,15.90
2023-02-16T23:44:15.184Z,11.52
2023-02-16T23:46:45.051Z,11.75
2023-02-16T23:49:13.396Z,12.60
2023-02-16T23:51:41.912Z,11.93
2023-02-16T23:54:11.634Z,11.10
2023-02-16T23:56:41.685Z,12.25
2023-02-16T23:59:10.003Z,13.02
